sensor_id;sensor_type;location;lat;lon;timestamp;P1;durP1;ratioP1;P2;durP2;ratioP2
68944;SDS011;55984;48.790;8.990;2023-02-26T00:02:22;9.90;;;4.33;;
68944;SDS011;55984;48.790;8.990;2023-02-26T00:04:48;8.30;;;3.93;;
68944;SDS011;55984;48.790;8.990;2023-02-26T00:07:13;11.60;;;4.57;;
68944;SDS011;55984;48.790;8.990;2023-02-26T00:09:38;5.83;;;3.47;;
68944;SDS011;55984;48.790;8.990;2023-02-26T00:12:04;6.90;;;3.53;;
68944;SDS011;55984;48.790;8.990;2023-02-26T00:14:30;7.17;;;3.60;;
68944;SDS011;55984;48.790;8.990;2023-02-26T00:17:03;7.50;;;3.60;;
68944;SDS011;55984;48.790;8.990;2023-02-26T00:19:54;10.83;;;3.83;;
68944;SDS011;55984;48.790;8.990;2023-02-26T00:22:20;5.10;;;3.33;;
68944;SDS011;55984;48.790;8.990;2023-02-26T00:24:46;8.40;;;3.43;;
68944;SDS011;55984;48.790;8.990;2023-02-26T00:27:11;7.83;;;3.97;;
68944;SDS011;55984;48.790;8.990;2023-02-26T00:29:37;9.00;;;3.90;;
68944;SDS011;55984;48.790;8.990;2023-02-26T00:32:03;6.17;;;3.60;;
68944;SDS011;55984;48.790;8.990;2023-02-26T00:34:29;7.70;;;3.67;;
68944;SDS011;55984;48.790;8.990;2023-02-26T00:40:09;8.97;;;3.23;;
68944;SDS011;55984;48.790;8.990;2023-02-26T00:42:40;9.17;;;3.60;;
68944;SDS011;55984;48.790;8.990;2023-02-26T00:45:06;8.83;;;4.70;;
68944;SDS011;55984;48.790;8.990;2023-02-26T00:50:42;8.07;;;4.23;;
68944;SDS011;55984;48.790;8.990;2023-02-26T00:53:21;9.83;;;3.67;;
68944;SDS011;55984;48.790;8.990;2023-02-26T00:55:51;4.73;;;3.63;;
68944;SDS011;55984;48.790;8.990;2023-02-26T00:58:16;7.20;;;3.67;;
68944;SDS011;55984;48.790;8.990;2023-02-26T01:00:41;8.50;;;4.20;;
68944;SDS011;55984;48.790;8.990;2023-02-26T01:03:07;10.10;;;4.47;;
68944;SDS011;55984;48.790;8.990;2023-02-26T01:05:33;8.87;;;4.20;;
68944;SDS011;55984;48.790;8.990;2023-02-26T01:08:01;6.53;;;3.37;;
68944;SDS011;55984;48.790;8.990;2023-02-26T01:10:28;8.57;;;4.20;;
68944;SDS011;55984;48.790;8.990;2023-02-26T01:12:53;7.53;;;3.90;;
68944;SDS011;55984;48.790;8.990;2023-02-26T01:15:27;8.23;;;4.40;;
68944;SDS011;55984;48.790;8.990;2023-02-26T01:17:54;7.90;;;4.10;;
68944;SDS011;55984;48.790;8.990;2023-02-26T01:20:28;7.03;;;3.70;;
68944;SDS011;55984;48.790;8.990;2023-02-26T01:23:00;7.80;;;3.90;;
68944;SDS011;55984;48.790;8.990;2023-02-26T01:25:44;11.40;;;4.20;;
68944;SDS011;55984;48.790;8.990;2023-02-26T01:28:23;8.27;;;4.00;;
68944;SDS011;55984;48.790;8.990;2023-02-26T01:30:51;8.00;;;3.57;;
68944;SDS011;55984;48.790;8.990;2023-02-26T01:36:01;14.27;;;4.27;;
68944;SDS011;55984;48.790;8.990;2023-02-26T01:38:38;5.40;;;3.50;;
68944;SDS011;55984;48.790;8.990;2023-02-26T01:46:35;6.40;;;3.53;;
68944;SDS011;55984;48.790;8.990;2023-02-26T01:49:30;7.93;;;3.70;;
68944;SDS011;55984;48.790;8.990;2023-02-26T01:52:04;7.78;;;3.75;;
68944;SDS011;55984;48.790;8.990;2023-02-26T01:54:32;14.73;;;4.25;;
68944;SDS011;55984;48.790;8.990;2023-02-26T01:59:43;6.70;;;3.72;;
68944;SDS011;55984;48.790;8.990;2023-02-26T02:02:11;8.25;;;3.80;;
68944;SDS011;55984;48.790;8.990;2023-02-26T02:04:40;6.55;;;3.83;;
68944;SDS011;55984;48.790;8.990;2023-02-26T02:07:06;9.50;;;4.13;;
68944;SDS011;55984;48.790;8.990;2023-02-26T02:09:33;13.13;;;4.55;;
68944;SDS011;55984;48.790;8.990;2023-02-26T02:14:51;9.02;;;4.43;;
68944;SDS011;55984;48.790;8.990;2023-02-26T02:17:33;13.25;;;4.18;;
68944;SDS011;55984;48.790;8.990;2023-02-26T02:23:08;9.57;;;4.05;;
68944;SDS011;55984;48.790;8.990;2023-02-26T02:31:30;8.88;;;4.70;;
68944;SDS011;55984;48.790;8.990;2023-02-26T02:34:11;11.55;;;4.30;;
68944;SDS011;55984;48.790;8.990;2023-02-26T02:36:52;9.40;;;4.57;;
68944;SDS011;55984;48.790;8.990;2023-02-26T02:39:24;10.27;;;4.47;;
68944;SDS011;55984;48.790;8.990;2023-02-26T02:41:54;13.18;;;4.88;;
68944;SDS011;55984;48.790;8.990;2023-02-26T02:44:24;11.75;;;5.53;;
68944;SDS011;55984;48.790;8.990;2023-02-26T02:46:53;9.90;;;5.18;;
68944;SDS011;55984;48.790;8.990;2023-02-26T02:51:50;11.73;;;4.82;;
68944;SDS011;55984;48.790;8.990;2023-02-26T02:54:41;13.48;;;4.43;;
68944;SDS011;55984;48.790;8.990;2023-02-26T02:57:14;9.30;;;4.35;;
68944;SDS011;55984;48.790;8.990;2023-02-26T02:59:44;17.30;;;4.75;;
68944;SDS011;55984;48.790;8.990;2023-02-26T03:02:20;10.25;;;3.75;;
68944;SDS011;55984;48.790;8.990;2023-02-26T03:04:49;10.85;;;4.35;;
68944;SDS011;55984;48.790;8.990;2023-02-26T03:07:14;9.80;;;4.20;;
68944;SDS011;55984;48.790;8.990;2023-02-26T03:09:41;6.77;;;4.13;;
68944;SDS011;55984;48.790;8.990;2023-02-26T03:12:07;9.07;;;4.63;;
68944;SDS011;55984;48.790;8.990;2023-02-26T03:14:32;9.57;;;4.50;;
68944;SDS011;55984;48.790;8.990;2023-02-26T03:17:14;10.60;;;5.03;;
68944;SDS011;55984;48.790;8.990;2023-02-26T03:19:58;9.80;;;5.00;;
68944;SDS011;55984;48.790;8.990;2023-02-26T03:22:35;9.00;;;4.80;;
68944;SDS011;55984;48.790;8.990;2023-02-26T03:25:07;9.80;;;4.50;;
68944;SDS011;55984;48.790;8.990;2023-02-26T03:30:23;8.95;;;4.75;;
68944;SDS011;55984;48.790;8.990;2023-02-26T03:32:57;10.88;;;5.30;;
68944;SDS011;55984;48.790;8.990;2023-02-26T03:38:02;11.48;;;4.85;;
68944;SDS011;55984;48.790;8.990;2023-02-26T03:40:41;12.05;;;4.70;;
68944;SDS011;55984;48.790;8.990;2023-02-26T03:43:14;13.07;;;5.32;;
68944;SDS011;55984;48.790;8.990;2023-02-26T03:45:45;11.27;;;4.93;;
68944;SDS011;55984;48.790;8.990;2023-02-26T03:48:15;13.55;;;4.80;;
68944;SDS011;55984;48.790;8.990;2023-02-26T03:50:51;17.13;;;5.60;;
68944;SDS011;55984;48.790;8.990;2023-02-26T03:53:23;11.55;;;5.13;;
68944;SDS011;55984;48.790;8.990;2023-02-26T03:55:58;12.55;;;5.15;;
68944;SDS011;55984;48.790;8.990;2023-02-26T03:58:29;10.52;;;4.65;;
68944;SDS011;55984;48.790;8.990;2023-02-26T04:01:00;9.80;;;4.57;;
68944;SDS011;55984;48.790;8.990;2023-02-26T04:06:00;11.90;;;4.93;;
68944;SDS011;55984;48.790;8.990;2023-02-26T04:08:27;13.20;;;4.57;;
68944;SDS011;55984;48.790;8.990;2023-02-26T04:10:54;11.55;;;4.97;;
68944;SDS011;55984;48.790;8.990;2023-02-26T04:13:23;10.38;;;4.38;;
68944;SDS011;55984;48.790;8.990;2023-02-26T04:15:48;8.90;;;3.90;;
68944;SDS011;55984;48.790;8.990;2023-02-26T04:18:14;12.27;;;4.77;;
68944;SDS011;55984;48.790;8.990;2023-02-26T04:20:39;8.90;;;4.30;;
68944;SDS011;55984;48.790;8.990;2023-02-26T04:23:06;12.80;;;4.90;;
68944;SDS011;55984;48.790;8.990;2023-02-26T04:25:31;8.95;;;4.80;;
68944;SDS011;55984;48.790;8.990;2023-02-26T04:27:57;11.93;;;4.63;;
68944;SDS011;55984;48.790;8.990;2023-02-26T04:30:22;8.53;;;4.90;;
68944;SDS011;55984;48.790;8.990;2023-02-26T04:32:47;9.53;;;5.00;;
68944;SDS011;55984;48.790;8.990;2023-02-26T04:35:13;10.77;;;4.90;;
68944;SDS011;55984;48.790;8.990;2023-02-26T04:37:39;9.40;;;4.83;;
68944;SDS011;55984;48.790;8.990;2023-02-26T04:40:04;12.53;;;5.03;;
68944;SDS011;55984;48.790;8.990;2023-02-26T04:42:30;10.25;;;4.70;;
68944;SDS011;55984;48.790;8.990;2023-02-26T04:44:57;11.75;;;5.07;;
68944;SDS011;55984;48.790;8.990;2023-02-26T04:47:22;11.73;;;5.07;;
68944;SDS011;55984;48.790;8.990;2023-02-26T04:49:47;18.47;;;5.97;;
68944;SDS011;55984;48.790;8.990;2023-02-26T04:52:13;13.70;;;5.13;;
68944;SDS011;55984;48.790;8.990;2023-02-26T04:54:38;13.37;;;5.80;;
68944;SDS011;55984;48.790;8.990;2023-02-26T04:57:05;16.05;;;6.07;;
68944;SDS011;55984;48.790;8.990;2023-02-26T04:59:31;16.70;;;6.30;;
68944;SDS011;55984;48.790;8.990;2023-02-26T05:02:05;15.87;;;5.40;;
68944;SDS011;55984;48.790;8.990;2023-02-26T05:04:31;14.75;;;6.20;;
68944;SDS011;55984;48.790;8.990;2023-02-26T05:06:56;12.57;;;6.57;;
68944;SDS011;55984;48.790;8.990;2023-02-26T05:09:22;12.03;;;5.90;;
68944;SDS011;55984;48.790;8.990;2023-02-26T05:11:47;15.53;;;6.20;;
68944;SDS011;55984;48.790;8.990;2023-02-26T05:14:13;12.83;;;6.00;;
68944;SDS011;55984;48.790;8.990;2023-02-26T05:16:39;9.90;;;4.88;;
68944;SDS011;55984;48.790;8.990;2023-02-26T05:19:05;17.17;;;5.20;;
68944;SDS011;55984;48.790;8.990;2023-02-26T05:21:31;12.95;;;5.43;;
68944;SDS011;55984;48.790;8.990;2023-02-26T05:23:57;10.60;;;4.90;;
68944;SDS011;55984;48.790;8.990;2023-02-26T05:26:23;13.93;;;5.43;;
68944;SDS011;55984;48.790;8.990;2023-02-26T05:28:49;16.90;;;5.73;;
68944;SDS011;55984;48.790;8.990;2023-02-26T05:31:14;11.90;;;5.50;;
68944;SDS011;55984;48.790;8.990;2023-02-26T05:33:40;10.17;;;4.90;;
68944;SDS011;55984;48.790;8.990;2023-02-26T05:36:05;12.10;;;5.40;;
68944;SDS011;55984;48.790;8.990;2023-02-26T05:38:31;13.10;;;5.50;;
68944;SDS011;55984;48.790;8.990;2023-02-26T05:40:57;17.27;;;5.85;;
68944;SDS011;55984;48.790;8.990;2023-02-26T05:43:23;10.43;;;4.87;;
68944;SDS011;55984;48.790;8.990;2023-02-26T05:45:49;10.60;;;4.80;;
68944;SDS011;55984;48.790;8.990;2023-02-26T05:48:16;13.55;;;5.40;;
68944;SDS011;55984;48.790;8.990;2023-02-26T05:50:41;13.23;;;4.67;;
68944;SDS011;55984;48.790;8.990;2023-02-26T05:53:07;12.17;;;5.00;;
68944;SDS011;55984;48.790;8.990;2023-02-26T05:55:32;11.90;;;5.07;;
68944;SDS011;55984;48.790;8.990;2023-02-26T05:57:58;9.93;;;5.23;;
68944;SDS011;55984;48.790;8.990;2023-02-26T06:00:23;11.33;;;5.73;;
68944;SDS011;55984;48.790;8.990;2023-02-26T06:02:48;11.43;;;5.50;;
68944;SDS011;55984;48.790;8.990;2023-02-26T06:05:14;10.60;;;4.70;;
68944;SDS011;55984;48.790;8.990;2023-02-26T06:07:53;10.07;;;5.27;;
68944;SDS011;55984;48.790;8.990;2023-02-26T06:10:18;17.20;;;5.65;;
68944;SDS011;55984;48.790;8.990;2023-02-26T06:12:43;12.77;;;4.83;;
68944;SDS011;55984;48.790;8.990;2023-02-26T06:15:09;14.03;;;5.60;;
68944;SDS011;55984;48.790;8.990;2023-02-26T06:17:34;13.70;;;5.30;;
68944;SDS011;55984;48.790;8.990;2023-02-26T06:20:01;10.60;;;5.20;;
68944;SDS011;55984;48.790;8.990;2023-02-26T06:22:27;14.60;;;5.35;;
68944;SDS011;55984;48.790;8.990;2023-02-26T06:24:53;13.20;;;5.90;;
68944;SDS011;55984;48.790;8.990;2023-02-26T06:27:19;13.05;;;5.50;;
68944;SDS011;55984;48.790;8.990;2023-02-26T06:29:45;11.80;;;4.80;;
68944;SDS011;55984;48.790;8.990;2023-02-26T06:32:10;13.60;;;4.60;;
68944;SDS011;55984;48.790;8.990;2023-02-26T06:34:35;12.43;;;5.20;;
68944;SDS011;55984;48.790;8.990;2023-02-26T06:37:01;13.73;;;5.20;;
68944;SDS011;55984;48.790;8.990;2023-02-26T06:39:26;13.10;;;5.40;;
68944;SDS011;55984;48.790;8.990;2023-02-26T06:41:51;12.50;;;4.90;;
68944;SDS011;55984;48.790;8.990;2023-02-26T06:44:17;9.53;;;4.90;;
68944;SDS011;55984;48.790;8.990;2023-02-26T06:46:42;9.47;;;5.20;;
68944;SDS011;55984;48.790;8.990;2023-02-26T06:49:07;11.50;;;4.77;;
68944;SDS011;55984;48.790;8.990;2023-02-26T06:51:33;11.83;;;4.80;;
68944;SDS011;55984;48.790;8.990;2023-02-26T06:53:59;9.27;;;5.00;;
68944;SDS011;55984;48.790;8.990;2023-02-26T06:56:25;12.03;;;4.73;;
68944;SDS011;55984;48.790;8.990;2023-02-26T06:58:50;14.73;;;4.97;;
68944;SDS011;55984;48.790;8.990;2023-02-26T07:01:15;14.87;;;5.00;;
68944;SDS011;55984;48.790;8.990;2023-02-26T07:03:41;9.93;;;4.27;;
68944;SDS011;55984;48.790;8.990;2023-02-26T07:06:07;10.33;;;4.60;;
68944;SDS011;55984;48.790;8.990;2023-02-26T07:08:34;9.48;;;4.55;;
68944;SDS011;55984;48.790;8.990;2023-02-26T07:10:59;10.93;;;4.63;;
68944;SDS011;55984;48.790;8.990;2023-02-26T07:13:25;8.83;;;4.40;;
68944;SDS011;55984;48.790;8.990;2023-02-26T07:15:51;9.57;;;4.00;;
68944;SDS011;55984;48.790;8.990;2023-02-26T07:18:16;12.53;;;4.93;;
68944;SDS011;55984;48.790;8.990;2023-02-26T07:20:47;9.23;;;4.40;;
68944;SDS011;55984;48.790;8.990;2023-02-26T07:23:13;6.93;;;4.00;;
68944;SDS011;55984;48.790;8.990;2023-02-26T07:25:40;9.47;;;4.50;;
68944;SDS011;55984;48.790;8.990;2023-02-26T07:28:06;7.33;;;4.20;;
68944;SDS011;55984;48.790;8.990;2023-02-26T07:30:31;8.53;;;4.40;;
68944;SDS011;55984;48.790;8.990;2023-02-26T07:32:57;7.47;;;4.33;;
68944;SDS011;55984;48.790;8.990;2023-02-26T07:35:23;12.10;;;4.60;;
68944;SDS011;55984;48.790;8.990;2023-02-26T07:37:48;9.03;;;4.37;;
68944;SDS011;55984;48.790;8.990;2023-02-26T07:40:14;9.43;;;4.97;;
68944;SDS011;55984;48.790;8.990;2023-02-26T07:42:40;10.33;;;4.40;;
68944;SDS011;55984;48.790;8.990;2023-02-26T07:45:06;9.50;;;4.47;;
68944;SDS011;55984;48.790;8.990;2023-02-26T07:47:33;8.75;;;4.10;;
68944;SDS011;55984;48.790;8.990;2023-02-26T07:49:59;13.57;;;4.50;;
68944;SDS011;55984;48.790;8.990;2023-02-26T07:52:24;12.30;;;3.93;;
68944;SDS011;55984;48.790;8.990;2023-02-26T07:54:50;7.70;;;4.20;;
68944;SDS011;55984;48.790;8.990;2023-02-26T07:57:16;10.97;;;4.63;;
68944;SDS011;55984;48.790;8.990;2023-02-26T07:59:42;7.67;;;3.80;;
68944;SDS011;55984;48.790;8.990;2023-02-26T08:02:08;10.23;;;3.90;;
68944;SDS011;55984;48.790;8.990;2023-02-26T08:04:35;10.90;;;4.40;;
68944;SDS011;55984;48.790;8.990;2023-02-26T08:07:00;12.17;;;4.60;;
68944;SDS011;55984;48.790;8.990;2023-02-26T08:09:26;8.90;;;4.00;;
68944;SDS011;55984;48.790;8.990;2023-02-26T08:11:51;13.57;;;4.50;;
68944;SDS011;55984;48.790;8.990;2023-02-26T08:14:17;13.27;;;4.40;;
68944;SDS011;55984;48.790;8.990;2023-02-26T08:16:42;8.83;;;4.53;;
68944;SDS011;55984;48.790;8.990;2023-02-26T08:19:08;9.37;;;4.73;;
68944;SDS011;55984;48.790;8.990;2023-02-26T08:21:33;7.43;;;3.90;;
68944;SDS011;55984;48.790;8.990;2023-02-26T08:23:58;10.00;;;4.53;;
68944;SDS011;55984;48.790;8.990;2023-02-26T08:26:24;8.57;;;4.53;;
68944;SDS011;55984;48.790;8.990;2023-02-26T08:28:50;7.77;;;4.00;;
68944;SDS011;55984;48.790;8.990;2023-02-26T08:31:16;7.00;;;3.70;;
68944;SDS011;55984;48.790;8.990;2023-02-26T08:33:41;10.90;;;4.13;;
68944;SDS011;55984;48.790;8.990;2023-02-26T08:36:07;9.50;;;4.10;;
68944;SDS011;55984;48.790;8.990;2023-02-26T08:38:33;9.33;;;4.30;;
68944;SDS011;55984;48.790;8.990;2023-02-26T08:40:58;8.50;;;4.00;;
68944;SDS011;55984;48.790;8.990;2023-02-26T08:43:24;10.23;;;3.73;;
68944;SDS011;55984;48.790;8.990;2023-02-26T08:45:53;10.17;;;5.20;;
68944;SDS011;55984;48.790;8.990;2023-02-26T08:48:20;6.50;;;3.60;;
68944;SDS011;55984;48.790;8.990;2023-02-26T08:50:45;8.53;;;4.40;;
68944;SDS011;55984;48.790;8.990;2023-02-26T08:53:11;8.30;;;4.10;;
68944;SDS011;55984;48.790;8.990;2023-02-26T08:55:36;6.60;;;3.63;;
68944;SDS011;55984;48.790;8.990;2023-02-26T08:58:01;10.50;;;4.13;;
68944;SDS011;55984;48.790;8.990;2023-02-26T09:00:27;7.30;;;4.00;;
68944;SDS011;55984;48.790;8.990;2023-02-26T09:02:53;8.20;;;3.57;;
68944;SDS011;55984;48.790;8.990;2023-02-26T09:05:18;10.07;;;3.90;;
68944;SDS011;55984;48.790;8.990;2023-02-26T09:07:43;9.83;;;4.10;;
68944;SDS011;55984;48.790;8.990;2023-02-26T09:10:10;7.63;;;4.00;;
68944;SDS011;55984;48.790;8.990;2023-02-26T09:12:36;10.83;;;4.43;;
68944;SDS011;55984;48.790;8.990;2023-02-26T09:15:03;8.07;;;3.70;;
68944;SDS011;55984;48.790;8.990;2023-02-26T09:17:29;7.43;;;3.80;;
68944;SDS011;55984;48.790;8.990;2023-02-26T09:19:55;7.17;;;3.70;;
68944;SDS011;55984;48.790;8.990;2023-02-26T09:22:21;8.37;;;4.30;;
68944;SDS011;55984;48.790;8.990;2023-02-26T09:24:47;12.33;;;3.87;;
68944;SDS011;55984;48.790;8.990;2023-02-26T09:27:12;6.20;;;4.00;;
68944;SDS011;55984;48.790;8.990;2023-02-26T09:29:40;4.70;;;3.00;;
68944;SDS011;55984;48.790;8.990;2023-02-26T09:32:06;4.90;;;3.03;;
68944;SDS011;55984;48.790;8.990;2023-02-26T09:34:35;9.33;;;4.10;;
68944;SDS011;55984;48.790;8.990;2023-02-26T09:37:02;8.30;;;3.93;;
68944;SDS011;55984;48.790;8.990;2023-02-26T09:39:28;6.50;;;4.03;;
68944;SDS011;55984;48.790;8.990;2023-02-26T09:41:54;6.03;;;3.67;;
68944;SDS011;55984;48.790;8.990;2023-02-26T09:44:23;6.43;;;3.83;;
68944;SDS011;55984;48.790;8.990;2023-02-26T09:46:59;9.30;;;3.90;;
68944;SDS011;55984;48.790;8.990;2023-02-26T09:52:39;7.17;;;4.10;;
68944;SDS011;55984;48.790;8.990;2023-02-26T09:55:14;6.00;;;3.90;;
68944;SDS011;55984;48.790;8.990;2023-02-26T09:57:49;10.63;;;4.77;;
68944;SDS011;55984;48.790;8.990;2023-02-26T10:00:22;11.17;;;4.40;;
68944;SDS011;55984;48.790;8.990;2023-02-26T10:11:56;8.00;;;3.77;;
68944;SDS011;55984;48.790;8.990;2023-02-26T10:14:27;8.53;;;4.40;;
68944;SDS011;55984;48.790;8.990;2023-02-26T10:16:59;9.43;;;4.27;;
68944;SDS011;55984;48.790;8.990;2023-02-26T10:19:35;6.87;;;4.00;;
68944;SDS011;55984;48.790;8.990;2023-02-26T10:22:10;8.37;;;4.30;;
68944;SDS011;55984;48.790;8.990;2023-02-26T10:24:43;6.53;;;3.73;;
68944;SDS011;55984;48.790;8.990;2023-02-26T10:27:21;13.60;;;4.27;;
68944;SDS011;55984;48.790;8.990;2023-02-26T10:30:48;7.07;;;4.10;;
68944;SDS011;55984;48.790;8.990;2023-02-26T10:33:16;7.32;;;3.70;;
68944;SDS011;55984;48.790;8.990;2023-02-26T10:36:24;10.70;;;4.17;;
68944;SDS011;55984;48.790;8.990;2023-02-26T10:38:53;8.27;;;4.30;;
68944;SDS011;55984;48.790;8.990;2023-02-26T10:41:27;7.80;;;4.10;;
68944;SDS011;55984;48.790;8.990;2023-02-26T10:43:58;7.17;;;3.87;;
68944;SDS011;55984;48.790;8.990;2023-02-26T10:46:50;5.93;;;3.77;;
68944;SDS011;55984;48.790;8.990;2023-02-26T10:52:00;5.63;;;3.93;;
68944;SDS011;55984;48.790;8.990;2023-02-26T10:54:35;6.97;;;4.13;;
68944;SDS011;55984;48.790;8.990;2023-02-26T10:57:07;6.40;;;3.73;;
68944;SDS011;55984;48.790;8.990;2023-02-26T10:59:40;9.60;;;5.07;;
68944;SDS011;55984;48.790;8.990;2023-02-26T11:02:10;8.93;;;4.93;;
68944;SDS011;55984;48.790;8.990;2023-02-26T11:04:57;6.67;;;3.60;;
68944;SDS011;55984;48.790;8.990;2023-02-26T11:07:23;8.93;;;4.00;;
68944;SDS011;55984;48.790;8.990;2023-02-26T11:09:51;7.03;;;3.63;;
68944;SDS011;55984;48.790;8.990;2023-02-26T11:12:18;6.30;;;3.63;;
68944;SDS011;55984;48.790;8.990;2023-02-26T11:14:47;6.13;;;3.80;;
68944;SDS011;55984;48.790;8.990;2023-02-26T11:17:14;7.50;;;4.07;;
68944;SDS011;55984;48.790;8.990;2023-02-26T11:19:50;7.47;;;3.90;;
68944;SDS011;55984;48.790;8.990;2023-02-26T11:22:20;7.30;;;3.97;;
68944;SDS011;55984;48.790;8.990;2023-02-26T11:24:46;6.10;;;3.50;;
68944;SDS011;55984;48.790;8.990;2023-02-26T11:27:18;8.97;;;4.23;;
68944;SDS011;55984;48.790;8.990;2023-02-26T11:29:46;7.10;;;3.87;;
68944;SDS011;55984;48.790;8.990;2023-02-26T11:32:19;6.40;;;3.93;;
68944;SDS011;55984;48.790;8.990;2023-02-26T11:34:47;5.97;;;3.60;;
68944;SDS011;55984;48.790;8.990;2023-02-26T11:37:18;4.57;;;3.03;;
68944;SDS011;55984;48.790;8.990;2023-02-26T11:39:46;6.73;;;4.23;;
68944;SDS011;55984;48.790;8.990;2023-02-26T11:42:19;6.63;;;3.60;;
68944;SDS011;55984;48.790;8.990;2023-02-26T11:44:44;6.80;;;3.60;;
68944;SDS011;55984;48.790;8.990;2023-02-26T11:47:15;5.27;;;3.33;;
68944;SDS011;55984;48.790;8.990;2023-02-26T11:49:45;5.73;;;3.13;;
68944;SDS011;55984;48.790;8.990;2023-02-26T11:54:44;4.63;;;3.20;;
68944;SDS011;55984;48.790;8.990;2023-02-26T11:57:29;4.80;;;3.10;;
68944;SDS011;55984;48.790;8.990;2023-02-26T11:59:57;5.37;;;3.70;;
68944;SDS011;55984;48.790;8.990;2023-02-26T12:02:25;4.70;;;2.87;;
68944;SDS011;55984;48.790;8.990;2023-02-26T12:04:56;4.07;;;3.23;;
68944;SDS011;55984;48.790;8.990;2023-02-26T12:07:24;7.27;;;3.27;;
68944;SDS011;55984;48.790;8.990;2023-02-26T12:09:50;4.60;;;2.90;;
68944;SDS011;55984;48.790;8.990;2023-02-26T12:27:02;4.80;;;3.30;;
68944;SDS011;55984;48.790;8.990;2023-02-26T12:43:49;4.47;;;3.20;;
68944;SDS011;55984;48.790;8.990;2023-02-26T12:49:05;6.73;;;3.40;;
68944;SDS011;55984;48.790;8.990;2023-02-26T13:00:09;5.87;;;3.30;;
68944;SDS011;55984;48.790;8.990;2023-02-26T13:05:48;6.07;;;3.47;;
68944;SDS011;55984;48.790;8.990;2023-02-26T13:08:24;6.97;;;3.80;;
68944;SDS011;55984;48.790;8.990;2023-02-26T13:13:47;4.37;;;3.00;;
68944;SDS011;55984;48.790;8.990;2023-02-26T13:16:40;4.80;;;2.80;;
68944;SDS011;55984;48.790;8.990;2023-02-26T13:24:37;3.47;;;2.80;;
68944;SDS011;55984;48.790;8.990;2023-02-26T13:27:06;6.90;;;3.00;;
68944;SDS011;55984;48.790;8.990;2023-02-26T13:32:24;6.23;;;2.90;;
68944;SDS011;55984;48.790;8.990;2023-02-26T13:54:07;4.57;;;2.90;;
68944;SDS011;55984;48.790;8.990;2023-02-26T14:04:48;4.83;;;2.67;;
68944;SDS011;55984;48.790;8.990;2023-02-26T14:07:21;3.60;;;2.33;;
68944;SDS011;55984;48.790;8.990;2023-02-26T14:10:25;4.23;;;2.73;;
68944;SDS011;55984;48.790;8.990;2023-02-26T14:13:10;4.67;;;2.53;;
68944;SDS011;55984;48.790;8.990;2023-02-26T14:15:47;3.40;;;2.70;;
68944;SDS011;55984;48.790;8.990;2023-02-26T14:24:00;4.10;;;2.50;;
68944;SDS011;55984;48.790;8.990;2023-02-26T14:26:31;3.60;;;2.30;;
68944;SDS011;55984;48.790;8.990;2023-02-26T14:29:06;4.70;;;2.73;;
68944;SDS011;55984;48.790;8.990;2023-02-26T14:34:53;4.43;;;2.60;;
68944;SDS011;55984;48.790;8.990;2023-02-26T14:37:24;3.40;;;2.40;;
68944;SDS011;55984;48.790;8.990;2023-02-26T14:45:08;4.70;;;2.20;;
68944;SDS011;55984;48.790;8.990;2023-02-26T14:47:53;3.20;;;2.20;;
68944;SDS011;55984;48.790;8.990;2023-02-26T14:50:21;2.90;;;2.00;;
68944;SDS011;55984;48.790;8.990;2023-02-26T15:08:56;3.33;;;2.50;;
68944;SDS011;55984;48.790;8.990;2023-02-26T15:25:35;4.33;;;3.03;;
68944;SDS011;55984;48.790;8.990;2023-02-26T15:28:04;5.30;;;3.10;;
68944;SDS011;55984;48.790;8.990;2023-02-26T15:30:31;3.80;;;2.60;;
68944;SDS011;55984;48.790;8.990;2023-02-26T15:32:59;5.63;;;2.80;;
68944;SDS011;55984;48.790;8.990;2023-02-26T15:35:28;5.60;;;3.37;;
68944;SDS011;55984;48.790;8.990;2023-02-26T15:37:56;4.73;;;3.23;;
68944;SDS011;55984;48.790;8.990;2023-02-26T15:40:26;3.43;;;2.43;;
68944;SDS011;55984;48.790;8.990;2023-02-26T15:42:54;4.53;;;2.83;;
68944;SDS011;55984;48.790;8.990;2023-02-26T15:45:33;7.93;;;3.50;;
68944;SDS011;55984;48.790;8.990;2023-02-26T15:48:42;4.23;;;3.00;;
68944;SDS011;55984;48.790;8.990;2023-02-26T15:51:03;4.00;;;2.63;;
68944;SDS011;55984;48.790;8.990;2023-02-26T15:53:35;5.20;;;2.87;;
68944;SDS011;55984;48.790;8.990;2023-02-26T15:56:06;4.80;;;2.97;;
68944;SDS011;55984;48.790;8.990;2023-02-26T15:58:44;5.23;;;3.10;;
68944;SDS011;55984;48.790;8.990;2023-02-26T16:01:15;4.30;;;2.90;;
68944;SDS011;55984;48.790;8.990;2023-02-26T16:03:46;4.70;;;3.07;;
68944;SDS011;55984;48.790;8.990;2023-02-26T16:06:12;3.60;;;2.47;;
68944;SDS011;55984;48.790;8.990;2023-02-26T16:08:41;3.27;;;2.27;;
68944;SDS011;55984;48.790;8.990;2023-02-26T16:11:07;5.83;;;2.67;;
68944;SDS011;55984;48.790;8.990;2023-02-26T16:13:35;3.57;;;2.60;;
68944;SDS011;55984;48.790;8.990;2023-02-26T16:16:04;4.00;;;2.47;;
68944;SDS011;55984;48.790;8.990;2023-02-26T16:18:41;6.50;;;2.70;;
68944;SDS011;55984;48.790;8.990;2023-02-26T16:21:10;3.00;;;2.57;;
68944;SDS011;55984;48.790;8.990;2023-02-26T16:23:47;5.20;;;3.00;;
68944;SDS011;55984;48.790;8.990;2023-02-26T16:26:24;6.30;;;3.10;;
68944;SDS011;55984;48.790;8.990;2023-02-26T16:28:58;4.80;;;2.87;;
68944;SDS011;55984;48.790;8.990;2023-02-26T16:31:26;5.03;;;2.60;;
68944;SDS011;55984;48.790;8.990;2023-02-26T16:33:54;3.27;;;2.40;;
68944;SDS011;55984;48.790;8.990;2023-02-26T16:36:46;5.03;;;2.50;;
68944;SDS011;55984;48.790;8.990;2023-02-26T16:39:16;4.70;;;3.03;;
68944;SDS011;55984;48.790;8.990;2023-02-26T16:41:47;4.70;;;2.80;;
68944;SDS011;55984;48.790;8.990;2023-02-26T16:46:55;3.63;;;2.43;;
68944;SDS011;55984;48.790;8.990;2023-02-26T16:49:32;4.20;;;2.90;;
68944;SDS011;55984;48.790;8.990;2023-02-26T16:52:00;4.60;;;2.80;;
68944;SDS011;55984;48.790;8.990;2023-02-26T16:54:26;4.63;;;2.70;;
68944;SDS011;55984;48.790;8.990;2023-02-26T16:56:57;7.50;;;2.97;;
68944;SDS011;55984;48.790;8.990;2023-02-26T16:59:37;6.23;;;2.90;;
68944;SDS011;55984;48.790;8.990;2023-02-26T17:02:15;5.43;;;2.80;;
68944;SDS011;55984;48.790;8.990;2023-02-26T17:04:50;7.80;;;3.80;;
68944;SDS011;55984;48.790;8.990;2023-02-26T17:10:16;14.40;;;5.10;;
68944;SDS011;55984;48.790;8.990;2023-02-26T17:12:49;8.53;;;4.03;;
68944;SDS011;55984;48.790;8.990;2023-02-26T17:15:19;8.10;;;3.73;;
68944;SDS011;55984;48.790;8.990;2023-02-26T17:17:51;9.10;;;4.10;;
68944;SDS011;55984;48.790;8.990;2023-02-26T17:20:20;7.40;;;3.83;;
68944;SDS011;55984;48.790;8.990;2023-02-26T17:22:47;4.57;;;2.90;;
68944;SDS011;55984;48.790;8.990;2023-02-26T17:25:14;9.97;;;3.73;;
68944;SDS011;55984;48.790;8.990;2023-02-26T17:27:44;6.17;;;3.30;;
68944;SDS011;55984;48.790;8.990;2023-02-26T17:30:12;4.17;;;2.67;;
68944;SDS011;55984;48.790;8.990;2023-02-26T17:32:40;6.33;;;3.00;;
68944;SDS011;55984;48.790;8.990;2023-02-26T17:35:07;7.83;;;3.50;;
68944;SDS011;55984;48.790;8.990;2023-02-26T17:37:33;4.93;;;3.17;;
68944;SDS011;55984;48.790;8.990;2023-02-26T17:40:00;5.80;;;2.70;;
68944;SDS011;55984;48.790;8.990;2023-02-26T17:42:26;4.23;;;2.77;;
68944;SDS011;55984;48.790;8.990;2023-02-26T17:44:51;6.47;;;3.30;;
68944;SDS011;55984;48.790;8.990;2023-02-26T17:47:22;3.90;;;2.77;;
68944;SDS011;55984;48.790;8.990;2023-02-26T17:49:50;3.77;;;2.60;;
68944;SDS011;55984;48.790;8.990;2023-02-26T17:52:16;4.37;;;2.77;;
68944;SDS011;55984;48.790;8.990;2023-02-26T17:54:42;4.50;;;2.90;;
68944;SDS011;55984;48.790;8.990;2023-02-26T17:57:08;5.83;;;3.07;;
68944;SDS011;55984;48.790;8.990;2023-02-26T17:59:40;5.37;;;3.00;;
68944;SDS011;55984;48.790;8.990;2023-02-26T18:02:20;5.20;;;2.90;;
68944;SDS011;55984;48.790;8.990;2023-02-26T18:04:47;4.50;;;2.70;;
68944;SDS011;55984;48.790;8.990;2023-02-26T18:07:13;5.73;;;2.67;;